createdAt,value
2019-03-15T00:01:42.509Z,3.33
2019-03-15T00:04:11.700Z,3.57
2019-03-15T00:06:40.888Z,2.83
2019-03-15T00:09:10.656Z,3.00
2019-03-15T00:11:39.909Z,2.53
2019-03-15T00:14:09.116Z,2.80
2019-03-15T00:16:38.324Z,2.33
2019-03-15T00:19:07.521Z,2.77
2019-03-15T00:21:36.691Z,2.00
2019-03-15T00:24:05.912Z,2.77
2019-03-15T00:26:35.125Z,3.23
2019-03-15T00:29:04.343Z,2.77
2019-03-15T00:31:33.531Z,3.07
2019-03-15T00:34:02.778Z,3.50
2019-03-15T00:36:31.977Z,2.77
2019-03-15T00:39:01.158Z,2.87
2019-03-15T00:41:30.383Z,2.43
2019-03-15T00:43:59.623Z,2.60
2019-03-15T00:46:28.904Z,2.30
2019-03-15T00:48:58.103Z,2.83
2019-03-15T00:51:27.338Z,2.07
2019-03-15T00:53:56.523Z,2.20
2019-03-15T00:56:25.743Z,1.83
2019-03-15T00:58:54.927Z,2.30
2019-03-15T01:01:24.240Z,2.20
2019-03-15T01:03:53.484Z,2.57
2019-03-15T01:06:22.712Z,2.33
2019-03-15T01:08:51.892Z,2.83
2019-03-15T01:11:21.091Z,2.63
2019-03-15T01:13:50.300Z,2.80
2019-03-15T01:16:19.749Z,2.57
2019-03-15T01:18:48.934Z,3.00
2019-03-15T01:21:18.125Z,3.47
2019-03-15T01:23:47.323Z,2.17
2019-03-15T01:26:16.522Z,2.23
2019-03-15T01:28:45.721Z,2.20
2019-03-15T01:31:14.927Z,2.43
2019-03-15T01:33:44.123Z,2.73
2019-03-15T01:36:13.355Z,2.77
2019-03-15T01:38:42.572Z,2.40
2019-03-15T01:41:11.843Z,2.20
2019-03-15T01:43:41.092Z,2.43
2019-03-15T01:46:10.191Z,2.87
2019-03-15T01:48:39.382Z,2.13
2019-03-15T01:51:08.700Z,1.97
2019-03-15T01:53:37.907Z,1.60
2019-03-15T01:56:07.288Z,1.83
2019-03-15T01:58:36.564Z,2.10
2019-03-15T02:01:05.787Z,1.80
2019-03-15T02:03:35.176Z,2.00
2019-03-15T02:06:04.388Z,1.90
2019-03-15T02:08:33.589Z,1.47
2019-03-15T02:11:03.621Z,2.03
2019-03-15T02:13:33.015Z,1.93
2019-03-15T02:16:02.212Z,1.90
2019-03-15T02:18:31.424Z,1.97
2019-03-15T02:21:00.633Z,2.57
2019-03-15T02:23:29.849Z,2.17
2019-03-15T02:25:59.038Z,3.23
2019-03-15T02:28:28.250Z,2.40
2019-03-15T02:30:57.473Z,2.53
2019-03-15T02:33:26.690Z,2.43
2019-03-15T02:35:55.896Z,2.20
2019-03-15T02:38:25.371Z,3.10
2019-03-15T02:40:55.644Z,2.77
2019-03-15T02:43:24.867Z,2.63
2019-03-15T02:45:54.080Z,2.67
2019-03-15T02:48:23.286Z,2.53
2019-03-15T02:50:52.464Z,2.80
2019-03-15T02:53:21.752Z,2.67
2019-03-15T02:55:51.045Z,2.17
2019-03-15T02:58:20.267Z,3.37
2019-03-15T03:00:49.455Z,2.10
2019-03-15T03:03:18.663Z,3.67
2019-03-15T03:05:47.907Z,2.10
2019-03-15T03:08:17.116Z,2.17
2019-03-15T03:10:46.315Z,2.13
2019-03-15T03:13:15.517Z,2.33
2019-03-15T03:15:44.747Z,2.07
2019-03-15T03:18:13.959Z,2.10
2019-03-15T03:20:43.177Z,2.20
2019-03-15T03:23:12.399Z,2.23
2019-03-15T03:25:41.624Z,2.17
2019-03-15T03:28:10.844Z,2.83
2019-03-15T03:30:40.045Z,2.93
2019-03-15T03:33:09.273Z,3.80
2019-03-15T03:35:38.448Z,3.93
2019-03-15T03:38:07.671Z,2.47
2019-03-15T03:40:36.985Z,3.33
2019-03-15T03:43:06.222Z,4.20
2019-03-15T03:45:35.436Z,4.57
2019-03-15T03:48:04.651Z,5.43
2019-03-15T03:50:33.869Z,4.30
2019-03-15T03:53:03.092Z,4.20
2019-03-15T03:55:32.347Z,4.47
2019-03-15T03:58:02.387Z,4.53
2019-03-15T04:00:31.881Z,3.87
2019-03-15T04:03:01.119Z,4.70
2019-03-15T04:05:30.299Z,4.47
2019-03-15T04:07:59.616Z,4.43
2019-03-15T04:10:28.816Z,5.00
2019-03-15T04:12:58.032Z,5.30
2019-03-15T04:15:27.220Z,5.07
2019-03-15T04:17:56.443Z,4.13
2019-03-15T04:20:25.671Z,4.77
2019-03-15T04:22:55.516Z,5.10
2019-03-15T04:25:24.897Z,4.00
2019-03-15T04:27:54.103Z,4.77
2019-03-15T04:30:23.341Z,5.20
2019-03-15T04:32:52.512Z,4.73
2019-03-15T04:35:21.743Z,4.67
2019-03-15T04:37:51.016Z,5.07
2019-03-15T04:40:20.192Z,5.37
2019-03-15T04:42:49.416Z,4.87
2019-03-15T04:45:18.655Z,5.30
2019-03-15T04:47:47.884Z,5.00
2019-03-15T04:50:17.077Z,5.10
2019-03-15T04:52:46.319Z,4.57
2019-03-15T04:55:15.619Z,4.80
2019-03-15T04:57:44.848Z,4.73
2019-03-15T05:00:14.092Z,4.13
2019-03-15T05:02:43.321Z,4.67
2019-03-15T05:05:12.600Z,5.53
2019-03-15T05:07:41.843Z,4.47
2019-03-15T05:10:11.045Z,4.20
2019-03-15T05:12:40.264Z,5.43
2019-03-15T05:15:09.481Z,4.73
2019-03-15T05:17:38.708Z,4.80
2019-03-15T05:20:08.108Z,5.77
2019-03-15T05:22:37.327Z,4.40
2019-03-15T05:25:06.620Z,5.17
2019-03-15T05:27:36.055Z,5.20
2019-03-15T05:30:05.372Z,5.70
2019-03-15T05:32:34.760Z,6.30
2019-03-15T05:35:04.257Z,5.53
2019-03-15T05:37:33.464Z,4.90
2019-03-15T05:40:02.689Z,5.37
2019-03-15T05:42:32.956Z,5.87
2019-03-15T05:45:02.309Z,5.57
2019-03-15T05:47:31.635Z,5.37
2019-03-15T05:50:00.887Z,5.40
2019-03-15T05:52:30.185Z,5.30
2019-03-15T05:54:59.437Z,5.20
2019-03-15T05:57:28.808Z,6.00
2019-03-15T05:59:58.152Z,6.27
2019-03-15T06:02:27.464Z,5.37
2019-03-15T06:04:56.724Z,5.47
2019-03-15T06:07:25.960Z,4.87
2019-03-15T06:09:55.202Z,5.03
2019-03-15T06:12:24.519Z,4.63
2019-03-15T06:14:53.761Z,5.40
2019-03-15T06:17:23.072Z,4.80
2019-03-15T06:19:52.290Z,5.40
2019-03-15T06:22:21.523Z,4.30
2019-03-15T06:24:51.128Z,4.20
2019-03-15T06:27:20.456Z,5.47
2019-03-15T06:29:49.696Z,4.50
2019-03-15T06:32:20.095Z,5.10
2019-03-15T06:34:49.293Z,6.40
2019-03-15T06:37:18.581Z,6.37
2019-03-15T06:39:48.000Z,5.37
2019-03-15T06:42:17.195Z,5.30
2019-03-15T06:44:57.440Z,5.13
2019-03-15T06:47:17.396Z,5.20
2019-03-15T06:49:47.301Z,5.87
2019-03-15T06:52:16.515Z,5.30
2019-03-15T06:54:45.747Z,5.37
2019-03-15T06:57:14.919Z,4.33
2019-03-15T06:59:44.141Z,5.80
2019-03-15T07:02:13.371Z,4.90
2019-03-15T07:04:42.588Z,4.53
2019-03-15T07:07:15.007Z,4.90
2019-03-15T07:09:42.679Z,5.17
2019-03-15T07:12:11.914Z,4.53
2019-03-15T07:14:41.171Z,5.47
2019-03-15T07:17:11.900Z,4.80
2019-03-15T07:19:41.299Z,4.60
2019-03-15T07:22:10.531Z,5.57
2019-03-15T07:24:39.836Z,5.40
2019-03-15T07:27:13.261Z,5.83
2019-03-15T07:29:39.998Z,5.53
2019-03-15T07:32:09.204Z,5.33
2019-03-15T07:34:38.420Z,5.87
2019-03-15T07:37:07.744Z,6.63
2019-03-15T07:39:36.968Z,5.43
2019-03-15T07:42:06.955Z,5.33
2019-03-15T07:44:36.205Z,5.10
2019-03-15T07:47:05.440Z,6.17
2019-03-15T07:49:34.755Z,5.67
2019-03-15T07:52:04.198Z,6.23
2019-03-15T07:54:37.851Z,6.30
2019-03-15T07:57:04.276Z,10.23
2019-03-15T07:59:33.495Z,11.57
2019-03-15T08:02:02.718Z,12.23
2019-03-15T08:04:31.943Z,8.63
2019-03-15T08:07:01.171Z,7.60
2019-03-15T08:09:30.532Z,6.40
2019-03-15T08:11:59.737Z,5.07
2019-03-15T08:14:29.049Z,6.13
2019-03-15T08:16:58.300Z,5.87
2019-03-15T08:19:27.513Z,7.67
2019-03-15T08:21:56.834Z,6.83
2019-03-15T08:24:26.068Z,6.57
2019-03-15T08:26:55.459Z,7.20
2019-03-15T08:29:24.663Z,7.93
2019-03-15T08:31:53.975Z,7.67
2019-03-15T08:34:23.204Z,7.20
2019-03-15T08:36:52.532Z,7.50
2019-03-15T08:39:21.764Z,7.27
2019-03-15T08:41:50.987Z,7.20
2019-03-15T08:44:20.218Z,6.73
2019-03-15T08:46:49.415Z,6.40
2019-03-15T08:49:18.659Z,6.93
2019-03-15T08:51:47.864Z,7.20
2019-03-15T08:54:17.097Z,6.47
2019-03-15T08:56:46.276Z,7.07
2019-03-15T08:59:15.706Z,6.43
2019-03-15T09:01:44.897Z,5.90
2019-03-15T09:04:14.217Z,6.77
2019-03-15T09:06:43.436Z,6.07
2019-03-15T09:09:12.668Z,6.70
2019-03-15T09:11:41.877Z,5.90
2019-03-15T09:14:11.112Z,5.30
2019-03-15T09:16:40.396Z,5.63
2019-03-15T09:19:09.576Z,5.77
2019-03-15T09:21:38.836Z,4.73
2019-03-15T09:24:08.076Z,4.40
2019-03-15T09:26:37.271Z,4.20
2019-03-15T09:29:06.502Z,4.40
2019-03-15T09:31:46.998Z,3.73
2019-03-15T09:34:06.624Z,4.43
2019-03-15T09:36:48.961Z,4.17
2019-03-15T09:39:07.598Z,4.37
2019-03-15T09:41:39.942Z,4.50
2019-03-15T09:44:07.743Z,4.50
2019-03-15T09:46:36.988Z,3.70
2019-03-15T09:49:06.223Z,3.97
2019-03-15T09:51:35.404Z,3.87
2019-03-15T09:54:04.816Z,3.93
2019-03-15T09:56:34.179Z,4.20
2019-03-15T09:59:03.415Z,3.90
2019-03-15T10:01:35.266Z,4.23
2019-03-15T10:04:03.548Z,4.30
2019-03-15T10:06:32.885Z,4.27
2019-03-15T10:09:02.228Z,4.07
2019-03-15T10:11:31.535Z,4.40
2019-03-15T10:14:02.246Z,4.20
2019-03-15T10:16:31.671Z,4.30
2019-03-15T10:19:00.878Z,5.00
2019-03-15T10:21:30.192Z,4.70
2019-03-15T10:23:59.388Z,4.33
2019-03-15T10:26:28.712Z,4.53
2019-03-15T10:28:58.517Z,4.73
2019-03-15T10:31:27.735Z,4.40
2019-03-15T10:33:57.147Z,5.43
2019-03-15T10:36:26.369Z,5.00
2019-03-15T10:38:55.623Z,5.67
2019-03-15T10:41:24.893Z,5.93
2019-03-15T10:43:54.111Z,6.10
2019-03-15T10:46:23.337Z,6.03
2019-03-15T10:48:52.533Z,6.00
2019-03-15T10:51:21.772Z,5.90
2019-03-15T10:53:51.071Z,6.63
2019-03-15T10:56:20.311Z,6.60
2019-03-15T10:58:49.572Z,7.30
2019-03-15T11:01:18.784Z,6.80
2019-03-15T11:03:48.051Z,7.97
2019-03-15T11:06:17.344Z,6.80
2019-03-15T11:08:46.631Z,6.43
2019-03-15T11:11:16.049Z,6.27
2019-03-15T11:13:45.256Z,6.67
2019-03-15T11:16:14.475Z,6.90
2019-03-15T11:18:43.679Z,6.80
2019-03-15T11:21:12.976Z,7.97
2019-03-15T11:23:42.350Z,7.97
2019-03-15T11:26:13.804Z,7.83
2019-03-15T11:28:42.417Z,9.47
2019-03-15T11:31:11.684Z,9.27
2019-03-15T11:33:40.901Z,9.80
2019-03-15T11:36:10.136Z,9.87
2019-03-15T11:38:39.360Z,10.70
2019-03-15T11:41:08.585Z,10.13
2019-03-15T11:43:37.851Z,11.00
2019-03-15T11:46:07.048Z,10.67
2019-03-15T11:48:36.288Z,11.30
2019-03-15T11:51:05.488Z,11.30
2019-03-15T11:53:34.716Z,10.63
2019-03-15T11:56:03.900Z,10.37
2019-03-15T11:58:33.115Z,9.70
2019-03-15T12:01:02.334Z,10.70
2019-03-15T12:03:31.542Z,10.83
2019-03-15T12:06:00.815Z,10.47
2019-03-15T12:08:30.058Z,10.67
2019-03-15T12:10:59.307Z,10.27
2019-03-15T12:13:28.574Z,9.90
2019-03-15T12:15:57.780Z,9.30
2019-03-15T12:18:27.020Z,9.70
2019-03-15T12:20:56.217Z,11.37
2019-03-15T12:23:25.483Z,10.23
2019-03-15T12:25:54.635Z,10.73
2019-03-15T12:28:23.916Z,10.63
2019-03-15T12:30:53.138Z,9.70
2019-03-15T12:33:22.385Z,8.83
2019-03-15T12:35:51.623Z,8.83
2019-03-15T12:38:20.792Z,8.80
2019-03-15T12:40:50.304Z,8.73
2019-03-15T12:43:19.528Z,8.13
2019-03-15T12:45:48.841Z,8.30
2019-03-15T12:48:18.037Z,8.67
2019-03-15T12:50:47.282Z,8.00
2019-03-15T12:53:16.480Z,9.00
2019-03-15T12:55:45.852Z,8.93
2019-03-15T12:58:15.094Z,9.33
2019-03-15T13:00:44.296Z,8.83
2019-03-15T13:03:14.647Z,9.00
2019-03-15T13:05:43.844Z,8.63
2019-03-15T13:08:13.086Z,7.80
2019-03-15T13:10:42.303Z,6.37
2019-03-15T13:13:11.786Z,5.20
2019-03-15T13:15:40.979Z,4.50
2019-03-15T13:18:11.095Z,3.93
2019-03-15T13:20:40.340Z,3.63
2019-03-15T13:23:09.966Z,2.83
2019-03-15T13:25:39.174Z,2.53
2019-03-15T13:28:09.339Z,2.67
2019-03-15T13:30:39.337Z,2.23
2019-03-15T13:33:19.589Z,2.13
2019-03-15T13:35:40.659Z,2.00
2019-03-15T13:38:10.726Z,2.20
2019-03-15T13:40:39.979Z,2.90
2019-03-15T13:43:09.238Z,1.83
2019-03-15T13:45:39.641Z,1.60
2019-03-15T13:48:08.983Z,1.53
2019-03-15T13:50:38.204Z,1.97
2019-03-15T13:53:07.546Z,1.97
2019-03-15T13:55:36.836Z,1.50
2019-03-15T13:58:06.821Z,1.77
2019-03-15T14:00:36.372Z,1.70
2019-03-15T14:03:05.773Z,1.80
2019-03-15T14:05:35.025Z,1.47
2019-03-15T14:08:11.848Z,1.47
2019-03-15T14:10:48.157Z,1.80
2019-03-15T14:13:06.221Z,1.57
2019-03-15T14:15:35.599Z,1.27
2019-03-15T14:18:04.932Z,1.40
2019-03-15T14:20:34.197Z,1.40
2019-03-15T14:23:03.406Z,1.50
2019-03-15T14:25:35.563Z,1.43
2019-03-15T14:28:05.079Z,1.50
2019-03-15T14:30:34.359Z,1.60
2019-03-15T14:33:03.550Z,1.40
2019-03-15T14:35:32.893Z,1.30
2019-03-15T14:38:02.564Z,1.70
2019-03-15T14:40:32.170Z,1.37
2019-03-15T14:43:01.848Z,1.50
2019-03-15T14:45:31.362Z,1.50
2019-03-15T14:48:00.688Z,1.60
2019-03-15T14:50:29.941Z,2.00
2019-03-15T14:52:59.194Z,1.70
2019-03-15T14:55:28.403Z,1.80
2019-03-15T14:58:00.203Z,1.70
2019-03-15T15:00:28.489Z,1.73
2019-03-15T15:02:57.684Z,2.00
2019-03-15T15:05:26.968Z,2.07
2019-03-15T15:07:56.257Z,2.37
2019-03-15T15:10:25.503Z,2.07
2019-03-15T15:12:54.721Z,1.80
2019-03-15T15:15:23.961Z,2.00
2019-03-15T15:17:53.271Z,1.80
2019-03-15T15:20:22.488Z,1.77
2019-03-15T15:22:51.811Z,1.57
2019-03-15T15:25:21.048Z,1.50
2019-03-15T15:28:03.454Z,2.13
2019-03-15T15:30:21.224Z,1.63
2019-03-15T15:32:50.432Z,1.70
2019-03-15T15:35:19.655Z,1.80
2019-03-15T15:37:48.924Z,1.80
2019-03-15T15:40:18.244Z,1.90
2019-03-15T15:42:47.512Z,2.00
2019-03-15T15:45:16.845Z,2.20
2019-03-15T15:47:46.044Z,1.40
2019-03-15T15:50:15.491Z,1.90
2019-03-15T15:52:44.705Z,2.10
2019-03-15T15:55:13.967Z,2.30
2019-03-15T15:57:43.257Z,2.03
2019-03-15T16:00:12.880Z,1.73
2019-03-15T16:02:42.095Z,1.90
2019-03-15T16:05:11.352Z,2.20
2019-03-15T16:07:40.634Z,1.80
2019-03-15T16:10:11.015Z,1.50
2019-03-15T16:12:40.243Z,2.43
2019-03-15T16:15:10.465Z,2.40
2019-03-15T16:17:39.670Z,2.03
2019-03-15T16:20:09.391Z,2.17
2019-03-15T16:22:38.635Z,2.10
2019-03-15T16:25:07.910Z,2.10
2019-03-15T16:27:37.113Z,2.20
2019-03-15T16:30:09.180Z,2.10
2019-03-15T16:32:38.473Z,1.90
2019-03-15T16:35:09.596Z,2.07
2019-03-15T16:37:38.840Z,1.83
2019-03-15T16:40:08.307Z,2.73
2019-03-15T16:42:37.507Z,2.43
2019-03-15T16:45:08.872Z,2.40
2019-03-15T16:47:38.069Z,2.77
2019-03-15T16:50:08.440Z,2.20
2019-03-15T16:52:37.712Z,2.83
2019-03-15T16:55:07.795Z,1.93
2019-03-15T16:57:36.996Z,2.20
2019-03-15T17:00:07.521Z,2.70
2019-03-15T17:02:36.713Z,2.03
2019-03-15T17:05:06.064Z,3.10
2019-03-15T17:07:35.264Z,3.33
2019-03-15T17:10:05.020Z,2.43
2019-03-15T17:12:34.337Z,3.33
2019-03-15T17:15:03.553Z,2.70
2019-03-15T17:17:32.759Z,3.17
2019-03-15T17:20:01.981Z,2.40
2019-03-15T17:22:31.227Z,2.30
2019-03-15T17:25:00.455Z,3.07
2019-03-15T17:27:29.697Z,2.60
2019-03-15T17:29:58.892Z,2.73
2019-03-15T17:32:28.119Z,2.90
2019-03-15T17:34:57.406Z,3.10
2019-03-15T17:37:26.660Z,2.53
2019-03-15T17:39:55.866Z,3.03
2019-03-15T17:42:25.092Z,3.03
2019-03-15T17:44:54.435Z,3.10
2019-03-15T17:47:24.817Z,2.90
2019-03-15T17:49:53.975Z,3.87
2019-03-15T17:52:29.019Z,2.70
2019-03-15T17:54:58.249Z,3.23
2019-03-15T17:57:27.489Z,3.57
2019-03-15T18:00:27.511Z,3.70
2019-03-15T18:02:56.740Z,3.70
2019-03-15T18:05:26.090Z,2.70
2019-03-15T18:07:55.571Z,3.50
2019-03-15T18:10:24.827Z,2.93
2019-03-15T18:12:54.056Z,3.43
2019-03-15T18:15:23.252Z,3.30
2019-03-15T18:17:52.487Z,3.23
2019-03-15T18:20:21.844Z,3.63
2019-03-15T18:22:51.120Z,3.03
2019-03-15T18:25:20.332Z,3.47
2019-03-15T18:27:50.103Z,3.20
2019-03-15T18:30:19.356Z,3.20
2019-03-15T18:32:48.562Z,3.63
2019-03-15T18:35:17.897Z,3.80
2019-03-15T18:37:47.180Z,3.57
2019-03-15T18:40:16.696Z,3.27
2019-03-15T18:42:45.979Z,3.00
2019-03-15T18:45:15.268Z,3.80
2019-03-15T18:47:44.555Z,3.70
2019-03-15T18:50:17.160Z,3.70
2019-03-15T18:52:46.371Z,4.10
2019-03-15T18:55:15.720Z,3.63
2019-03-15T18:57:45.008Z,3.30
2019-03-15T19:00:16.899Z,3.20
2019-03-15T19:02:46.106Z,3.77
2019-03-15T19:05:15.421Z,4.07
2019-03-15T19:07:44.603Z,3.47
2019-03-15T19:10:14.240Z,4.40
2019-03-15T19:12:43.548Z,3.97
2019-03-15T19:15:13.820Z,4.07
2019-03-15T19:17:43.215Z,3.63
2019-03-15T19:20:12.652Z,4.17
2019-03-15T19:22:41.964Z,3.53
2019-03-15T19:25:11.232Z,3.63
2019-03-15T19:27:40.448Z,3.63
2019-03-15T19:30:10.839Z,3.43
2019-03-15T19:32:40.065Z,4.00
2019-03-15T19:35:09.675Z,4.03
2019-03-15T19:37:38.967Z,3.97
2019-03-15T19:40:10.792Z,3.87
2019-03-15T19:42:40.073Z,3.97
2019-03-15T19:45:11.124Z,3.67
2019-03-15T19:47:40.351Z,3.87
2019-03-15T19:50:11.576Z,3.57
2019-03-15T19:52:40.802Z,3.73
2019-03-15T19:55:10.715Z,3.93
2019-03-15T19:57:40.016Z,4.00
2019-03-15T20:00:11.344Z,3.53
2019-03-15T20:02:40.567Z,4.77
2019-03-15T20:05:09.912Z,4.17
2019-03-15T20:07:39.280Z,3.70
2019-03-15T20:10:09.776Z,3.13
2019-03-15T20:12:38.984Z,3.83
2019-03-15T20:15:08.510Z,3.50
2019-03-15T20:17:37.824Z,3.53
2019-03-15T20:20:07.971Z,3.50
2019-03-15T20:22:37.252Z,4.00
2019-03-15T20:25:07.535Z,4.80
2019-03-15T20:27:36.800Z,4.07
2019-03-15T20:30:06.471Z,3.33
2019-03-15T20:32:37.179Z,4.13
2019-03-15T20:35:06.558Z,3.83
2019-03-15T20:37:35.784Z,3.90
2019-03-15T20:40:05.931Z,4.03
2019-03-15T20:42:35.360Z,4.37
2019-03-15T20:45:05.128Z,3.87
2019-03-15T20:47:36.232Z,4.83
2019-03-15T20:50:05.568Z,4.63
2019-03-15T20:52:35.000Z,4.00
2019-03-15T20:55:04.637Z,3.30
2019-03-15T20:57:33.828Z,4.03
2019-03-15T21:00:03.152Z,4.37
2019-03-15T21:02:32.355Z,3.63
2019-03-15T21:05:01.588Z,4.63
2019-03-15T21:07:30.782Z,3.10
2019-03-15T21:10:00.018Z,3.40
2019-03-15T21:12:29.208Z,4.23
2019-03-15T21:14:58.438Z,3.90
2019-03-15T21:17:27.656Z,4.20
2019-03-15T21:19:56.896Z,3.97
2019-03-15T21:22:26.104Z,4.20
2019-03-15T21:24:55.343Z,4.10
2019-03-15T21:27:24.531Z,4.33
2019-03-15T21:29:53.881Z,3.93
2019-03-15T21:32:23.084Z,3.70
2019-03-15T21:34:52.323Z,4.20
2019-03-15T21:37:21.514Z,3.80
2019-03-15T21:39:50.827Z,4.60
2019-03-15T21:42:20.075Z,4.10
2019-03-15T21:44:49.324Z,4.10
2019-03-15T21:47:19.381Z,3.90
2019-03-15T21:49:48.564Z,3.50
2019-03-15T21:52:17.775Z,3.90
2019-03-15T21:54:46.996Z,4.43
2019-03-15T21:57:16.342Z,3.87
2019-03-15T21:59:45.556Z,3.37
2019-03-15T22:02:14.764Z,4.00
2019-03-15T22:04:43.989Z,4.10
2019-03-15T22:07:13.176Z,4.73
2019-03-15T22:09:42.400Z,3.73
2019-03-15T22:12:11.612Z,4.30
2019-03-15T22:14:40.853Z,3.53
2019-03-15T22:17:10.045Z,4.13
2019-03-15T22:19:39.280Z,3.90
2019-03-15T22:22:08.496Z,4.13
2019-03-15T22:24:37.708Z,4.13
2019-03-15T22:27:06.917Z,4.20
2019-03-15T22:29:36.088Z,3.50
2019-03-15T22:32:05.295Z,3.23
2019-03-15T22:34:34.539Z,3.43
2019-03-15T22:37:03.744Z,4.03
2019-03-15T22:39:32.994Z,4.40
2019-03-15T22:42:02.191Z,4.00
2019-03-15T22:44:31.486Z,3.50
2019-03-15T22:47:00.750Z,3.90
2019-03-15T22:49:29.960Z,3.47
2019-03-15T22:51:59.150Z,3.70
2019-03-15T22:54:28.405Z,4.07
2019-03-15T22:56:57.591Z,3.57
2019-03-15T22:59:26.782Z,4.10
2019-03-15T23:01:56.012Z,4.20
2019-03-15T23:04:25.272Z,4.07
2019-03-15T23:06:54.479Z,3.80
2019-03-15T23:09:23.728Z,3.43
2019-03-15T23:11:52.930Z,3.10
2019-03-15T23:14:22.253Z,4.13
2019-03-15T23:16:51.520Z,3.50
2019-03-15T23:19:20.775Z,3.87
2019-03-15T23:21:49.969Z,3.60
2019-03-15T23:24:19.169Z,4.07
2019-03-15T23:26:48.411Z,4.50
2019-03-15T23:29:17.595Z,4.50
2019-03-15T23:31:46.819Z,4.30
2019-03-15T23:34:16.011Z,4.53
2019-03-15T23:36:45.275Z,3.80
2019-03-15T23:39:14.564Z,3.57
2019-03-15T23:41:43.819Z,3.90
2019-03-15T23:44:13.064Z,4.03
2019-03-15T23:46:42.312Z,3.80
2019-03-15T23:49:11.524Z,4.57
2019-03-15T23:51:40.739Z,3.97
2019-03-15T23:54:09.927Z,4.50
2019-03-15T23:56:39.170Z,4.33
2019-03-15T23:59:08.372Z,3.53
